sensor_id;sensor_type;location;lat;lon;timestamp;temperature;humidity
72320;SHT30;60269;52.502;16.732;2023-11-19T00:00:31;0.55;99.99
72320;SHT30;60269;52.502;16.732;2023-11-19T00:04:23;0.49;99.99
72320;SHT30;60269;52.502;16.732;2023-11-19T00:07:55;0.41;99.99
72320;SHT30;60269;52.502;16.732;2023-11-19T00:11:27;0.32;99.99
72320;SHT30;60269;52.502;16.732;2023-11-19T00:14:59;0.18;99.99
72320;SHT30;60269;52.502;16.732;2023-11-19T00:18:31;0.08;99.99
72320;SHT30;60269;52.502;16.732;2023-11-19T00:22:04;-0.03;99.99
72320;SHT30;60269;52.502;16.732;2023-11-19T00:25:36;-0.13;99.99
72320;SHT30;60269;52.502;16.732;2023-11-19T00:29:10;-0.24;99.99
72320;SHT30;60269;52.502;16.732;2023-11-19T00:32:46;-0.27;99.99
72320;SHT30;60269;52.502;16.732;2023-11-19T00:36:18;-0.33;99.99
72320;SHT30;60269;52.502;16.732;2023-11-19T00:39:50;-0.36;99.99
72320;SHT30;60269;52.502;16.732;2023-11-19T00:43:23;-0.27;99.99
72320;SHT30;60269;52.502;16.732;2023-11-19T00:46:56;-0.23;99.99
72320;SHT30;60269;52.502;16.732;2023-11-19T00:50:28;-0.20;99.99
72320;SHT30;60269;52.502;16.732;2023-11-19T00:54:06;-0.17;99.99
72320;SHT30;60269;52.502;16.732;2023-11-19T00:57:38;-0.23;99.99
72320;SHT30;60269;52.502;16.732;2023-11-19T01:01:11;-0.24;99.99
72320;SHT30;60269;52.502;16.732;2023-11-19T01:04:43;-0.29;99.99
72320;SHT30;60269;52.502;16.732;2023-11-19T01:08:16;-0.23;99.99
72320;SHT30;60269;52.502;16.732;2023-11-19T01:11:47;-0.23;99.99
72320;SHT30;60269;52.502;16.732;2023-11-19T01:15:20;-0.13;99.99
72320;SHT30;60269;52.502;16.732;2023-11-19T01:18:52;-0.12;99.99
72320;SHT30;60269;52.502;16.732;2023-11-19T01:22:40;-0.03;99.99
72320;SHT30;60269;52.502;16.732;2023-11-19T01:26:12;0.01;99.99
72320;SHT30;60269;52.502;16.732;2023-11-19T01:29:45;0.05;99.99
72320;SHT30;60269;52.502;16.732;2023-11-19T01:33:17;0.09;99.99
72320;SHT30;60269;52.502;16.732;2023-11-19T01:36:49;0.11;99.99
72320;SHT30;60269;52.502;16.732;2023-11-19T01:40:21;0.09;99.99
72320;SHT30;60269;52.502;16.732;2023-11-19T01:43:53;0.07;99.99
72320;SHT30;60269;52.502;16.732;2023-11-19T01:47:27;0.07;99.99
72320;SHT30;60269;52.502;16.732;2023-11-19T01:51:02;0.02;99.99
72320;SHT30;60269;52.502;16.732;2023-11-19T01:54:34;0.02;99.99
72320;SHT30;60269;52.502;16.732;2023-11-19T01:58:07;0.05;99.99
72320;SHT30;60269;52.502;16.732;2023-11-19T02:01:40;0.09;99.99
72320;SHT30;60269;52.502;16.732;2023-11-19T02:05:13;0.15;99.99
72320;SHT30;60269;52.502;16.732;2023-11-19T02:08:45;0.14;99.99
72320;SHT30;60269;52.502;16.732;2023-11-19T02:12:17;0.19;99.99
72320;SHT30;60269;52.502;16.732;2023-11-19T02:15:49;0.18;99.99
72320;SHT30;60269;52.502;16.732;2023-11-19T02:19:21;0.25;99.99
72320;SHT30;60269;52.502;16.732;2023-11-19T02:22:53;0.30;99.99
72320;SHT30;60269;52.502;16.732;2023-11-19T02:26:30;0.33;99.99
72320;SHT30;60269;52.502;16.732;2023-11-19T02:30:05;0.33;99.99
72320;SHT30;60269;52.502;16.732;2023-11-19T02:33:40;0.37;99.99
72320;SHT30;60269;52.502;16.732;2023-11-19T02:37:12;0.39;99.99
72320;SHT30;60269;52.502;16.732;2023-11-19T02:40:44;0.44;99.99
72320;SHT30;60269;52.502;16.732;2023-11-19T02:44:16;0.46;99.99
72320;SHT30;60269;52.502;16.732;2023-11-19T02:47:49;0.48;99.99
72320;SHT30;60269;52.502;16.732;2023-11-19T02:51:21;0.52;99.99
72320;SHT30;60269;52.502;16.732;2023-11-19T02:54:53;0.56;99.99
72320;SHT30;60269;52.502;16.732;2023-11-19T02:58:25;0.60;99.99
72320;SHT30;60269;52.502;16.732;2023-11-19T03:02:00;0.55;99.99
72320;SHT30;60269;52.502;16.732;2023-11-19T03:05:32;0.50;99.99
72320;SHT30;60269;52.502;16.732;2023-11-19T03:09:04;0.55;99.99
72320;SHT30;60269;52.502;16.732;2023-11-19T03:12:43;0.55;99.99
72320;SHT30;60269;52.502;16.732;2023-11-19T03:16:17;0.49;99.99
72320;SHT30;60269;52.502;16.732;2023-11-19T03:19:49;0.52;99.99
72320;SHT30;60269;52.502;16.732;2023-11-19T03:23:21;0.56;99.99
72320;SHT30;60269;52.502;16.732;2023-11-19T03:26:54;0.56;99.99
72320;SHT30;60269;52.502;16.732;2023-11-19T03:30:26;0.58;99.99
72320;SHT30;60269;52.502;16.732;2023-11-19T03:34:01;0.50;99.99
72320;SHT30;60269;52.502;16.732;2023-11-19T03:37:34;0.50;99.99
72320;SHT30;60269;52.502;16.732;2023-11-19T03:41:14;0.53;99.99
72320;SHT30;60269;52.502;16.732;2023-11-19T03:44:47;0.46;99.99
72320;SHT30;60269;52.502;16.732;2023-11-19T03:48:20;0.49;99.99
72320;SHT30;60269;52.502;16.732;2023-11-19T03:51:53;0.49;99.99
72320;SHT30;60269;52.502;16.732;2023-11-19T03:55:24;0.49;99.99
72320;SHT30;60269;52.502;16.732;2023-11-19T03:58:57;0.56;99.99
72320;SHT30;60269;52.502;16.732;2023-11-19T04:02:28;0.59;99.99
72320;SHT30;60269;52.502;16.732;2023-11-19T04:06:01;0.60;99.99
72320;SHT30;60269;52.502;16.732;2023-11-19T04:09:33;0.62;99.99
72320;SHT30;60269;52.502;16.732;2023-11-19T04:13:05;0.63;99.99
72320;SHT30;60269;52.502;16.732;2023-11-19T04:16:37;0.62;99.99
72320;SHT30;60269;52.502;16.732;2023-11-19T04:20:10;0.62;99.99
72320;SHT30;60269;52.502;16.732;2023-11-19T04:23:46;0.62;99.99
72320;SHT30;60269;52.502;16.732;2023-11-19T04:27:18;0.62;99.99
72320;SHT30;60269;52.502;16.732;2023-11-19T04:30:50;0.63;99.99
72320;SHT30;60269;52.502;16.732;2023-11-19T04:34:22;0.67;99.99
72320;SHT30;60269;52.502;16.732;2023-11-19T04:37:54;0.65;99.99
72320;SHT30;60269;52.502;16.732;2023-11-19T04:41:29;0.66;99.99
72320;SHT30;60269;52.502;16.732;2023-11-19T04:45:01;0.69;99.99
72320;SHT30;60269;52.502;16.732;2023-11-19T04:48:33;0.70;99.99
72320;SHT30;60269;52.502;16.732;2023-11-19T04:52:08;0.73;99.99
72320;SHT30;60269;52.502;16.732;2023-11-19T04:55:41;0.73;99.99
72320;SHT30;60269;52.502;16.732;2023-11-19T04:59:13;0.70;99.91
72320;SHT30;60269;52.502;16.732;2023-11-19T05:02:45;0.69;99.56
72320;SHT30;60269;52.502;16.732;2023-11-19T05:06:17;0.73;99.66
72320;SHT30;60269;52.502;16.732;2023-11-19T05:09:49;0.69;99.23
72320;SHT30;60269;52.502;16.732;2023-11-19T05:13:22;0.73;99.96
72320;SHT30;60269;52.502;16.732;2023-11-19T05:16:55;0.77;99.86
72320;SHT30;60269;52.502;16.732;2023-11-19T05:20:27;0.76;99.55
72320;SHT30;60269;52.502;16.732;2023-11-19T05:23:59;0.80;99.22
72320;SHT30;60269;52.502;16.732;2023-11-19T05:27:31;0.81;98.98
72320;SHT30;60269;52.502;16.732;2023-11-19T05:31:03;0.83;99.03
72320;SHT30;60269;52.502;16.732;2023-11-19T05:34:35;0.80;99.48
72320;SHT30;60269;52.502;16.732;2023-11-19T05:38:07;0.75;99.88
72320;SHT30;60269;52.502;16.732;2023-11-19T05:41:39;0.75;99.74
72320;SHT30;60269;52.502;16.732;2023-11-19T05:45:12;0.67;99.99
72320;SHT30;60269;52.502;16.732;2023-11-19T05:48:44;0.66;99.99
72320;SHT30;60269;52.502;16.732;2023-11-19T05:52:18;0.67;99.99
72320;SHT30;60269;52.502;16.732;2023-11-19T05:55:51;0.67;99.99
72320;SHT30;60269;52.502;16.732;2023-11-19T05:59:29;0.72;99.99
72320;SHT30;60269;52.502;16.732;2023-11-19T06:03:01;0.69;99.99
72320;SHT30;60269;52.502;16.732;2023-11-19T06:06:33;0.72;99.99
72320;SHT30;60269;52.502;16.732;2023-11-19T06:10:06;0.69;99.99
72320;SHT30;60269;52.502;16.732;2023-11-19T06:13:38;0.67;99.99
72320;SHT30;60269;52.502;16.732;2023-11-19T06:17:11;0.66;99.99
72320;SHT30;60269;52.502;16.732;2023-11-19T06:20:43;0.66;99.99
72320;SHT30;60269;52.502;16.732;2023-11-19T06:24:15;0.66;99.99
72320;SHT30;60269;52.502;16.732;2023-11-19T06:27:47;0.70;99.99
72320;SHT30;60269;52.502;16.732;2023-11-19T06:31:19;0.66;99.99
72320;SHT30;60269;52.502;16.732;2023-11-19T06:34:51;0.63;99.99
72320;SHT30;60269;52.502;16.732;2023-11-19T06:38:23;0.67;99.99
72320;SHT30;60269;52.502;16.732;2023-11-19T06:41:56;0.66;99.99
72320;SHT30;60269;52.502;16.732;2023-11-19T06:45:28;0.67;99.99
72320;SHT30;60269;52.502;16.732;2023-11-19T06:49:00;0.66;99.99
72320;SHT30;60269;52.502;16.732;2023-11-19T06:52:32;0.65;99.99
72320;SHT30;60269;52.502;16.732;2023-11-19T06:56:04;0.69;99.99
72320;SHT30;60269;52.502;16.732;2023-11-19T06:59:38;0.69;99.99
72320;SHT30;60269;52.502;16.732;2023-11-19T07:03:10;0.69;99.99
72320;SHT30;60269;52.502;16.732;2023-11-19T07:06:42;0.67;99.99
72320;SHT30;60269;52.502;16.732;2023-11-19T07:10:14;0.75;99.99
72320;SHT30;60269;52.502;16.732;2023-11-19T07:13:47;0.77;99.99
72320;SHT30;60269;52.502;16.732;2023-11-19T07:17:19;0.84;99.99
72320;SHT30;60269;52.502;16.732;2023-11-19T07:20:52;0.86;99.99
72320;SHT30;60269;52.502;16.732;2023-11-19T07:24:24;0.88;99.99
72320;SHT30;60269;52.502;16.732;2023-11-19T07:27:56;0.98;99.99
72320;SHT30;60269;52.502;16.732;2023-11-19T07:31:28;1.01;99.72
72320;SHT30;60269;52.502;16.732;2023-11-19T07:35:00;1.08;99.61
72320;SHT30;60269;52.502;16.732;2023-11-19T07:38:32;1.15;99.55
72320;SHT30;60269;52.502;16.732;2023-11-19T07:42:04;1.17;99.15
72320;SHT30;60269;52.502;16.732;2023-11-19T07:45:37;1.21;99.22
72320;SHT30;60269;52.502;16.732;2023-11-19T07:49:09;1.23;98.64
72320;SHT30;60269;52.502;16.732;2023-11-19T07:52:42;1.31;99.01
72320;SHT30;60269;52.502;16.732;2023-11-19T07:56:14;1.39;98.61
72320;SHT30;60269;52.502;16.732;2023-11-19T07:59:46;1.35;98.31
72320;SHT30;60269;52.502;16.732;2023-11-19T08:03:18;1.41;98.43
72320;SHT30;60269;52.502;16.732;2023-11-19T08:06:51;1.44;98.47
72320;SHT30;60269;52.502;16.732;2023-11-19T08:10:26;1.51;98.65
72320;SHT30;60269;52.502;16.732;2023-11-19T08:13:58;1.52;98.75
72320;SHT30;60269;52.502;16.732;2023-11-19T08:17:30;1.59;98.69
72320;SHT30;60269;52.502;16.732;2023-11-19T08:21:03;1.58;98.48
72320;SHT30;60269;52.502;16.732;2023-11-19T08:24:36;1.65;98.60
72320;SHT30;60269;52.502;16.732;2023-11-19T08:28:08;1.70;98.20
72320;SHT30;60269;52.502;16.732;2023-11-19T08:31:40;1.73;98.38
72320;SHT30;60269;52.502;16.732;2023-11-19T08:35:12;1.69;97.99
72320;SHT30;60269;52.502;16.732;2023-11-19T08:38:44;1.69;98.23
72320;SHT30;60269;52.502;16.732;2023-11-19T08:42:17;1.63;98.09
72320;SHT30;60269;52.502;16.732;2023-11-19T08:45:48;1.55;98.81
72320;SHT30;60269;52.502;16.732;2023-11-19T08:49:20;1.44;99.08
72320;SHT30;60269;52.502;16.732;2023-11-19T08:52:52;1.42;99.69
72320;SHT30;60269;52.502;16.732;2023-11-19T08:56:25;1.31;99.99
72320;SHT30;60269;52.502;16.732;2023-11-19T08:59:57;1.24;99.99
72320;SHT30;60269;52.502;16.732;2023-11-19T09:03:31;1.21;99.99
72320;SHT30;60269;52.502;16.732;2023-11-19T09:07:04;1.09;99.99
72320;SHT30;60269;52.502;16.732;2023-11-19T09:10:35;0.97;99.99
72320;SHT30;60269;52.502;16.732;2023-11-19T09:14:08;0.83;99.99
72320;SHT30;60269;52.502;16.732;2023-11-19T09:17:39;0.70;99.99
72320;SHT30;60269;52.502;16.732;2023-11-19T09:21:13;0.62;99.99
72320;SHT30;60269;52.502;16.732;2023-11-19T09:24:44;0.55;99.99
72320;SHT30;60269;52.502;16.732;2023-11-19T09:28:17;0.52;99.99
72320;SHT30;60269;52.502;16.732;2023-11-19T09:31:48;0.46;99.99
72320;SHT30;60269;52.502;16.732;2023-11-19T09:35:21;0.48;99.99
72320;SHT30;60269;52.502;16.732;2023-11-19T09:38:52;0.45;99.99
72320;SHT30;60269;52.502;16.732;2023-11-19T09:42:24;0.42;99.99
72320;SHT30;60269;52.502;16.732;2023-11-19T09:45:57;0.42;99.99
72320;SHT30;60269;52.502;16.732;2023-11-19T09:49:30;0.37;99.99
72320;SHT30;60269;52.502;16.732;2023-11-19T09:53:05;0.41;99.99
72320;SHT30;60269;52.502;16.732;2023-11-19T09:56:38;0.37;99.99
72320;SHT30;60269;52.502;16.732;2023-11-19T10:00:13;0.38;99.99
72320;SHT30;60269;52.502;16.732;2023-11-19T10:03:47;0.33;99.99
72320;SHT30;60269;52.502;16.732;2023-11-19T10:07:21;0.33;99.99
72320;SHT30;60269;52.502;16.732;2023-11-19T10:10:58;0.32;99.99
72320;SHT30;60269;52.502;16.732;2023-11-19T10:14:31;0.29;99.99
72320;SHT30;60269;52.502;16.732;2023-11-19T10:18:03;0.28;99.99
72320;SHT30;60269;52.502;16.732;2023-11-19T10:21:38;0.25;99.99
72320;SHT30;60269;52.502;16.732;2023-11-19T10:25:24;0.25;99.99
72320;SHT30;60269;52.502;16.732;2023-11-19T10:28:56;0.26;99.99
72320;SHT30;60269;52.502;16.732;2023-11-19T10:32:28;0.28;99.99
72320;SHT30;60269;52.502;16.732;2023-11-19T10:36:04;0.28;99.99
72320;SHT30;60269;52.502;16.732;2023-11-19T10:39:53;0.29;99.99
72320;SHT30;60269;52.502;16.732;2023-11-19T10:43:28;0.35;99.99
72320;SHT30;60269;52.502;16.732;2023-11-19T10:47:00;0.41;99.99
72320;SHT30;60269;52.502;16.732;2023-11-19T10:50:36;0.42;99.99
72320;SHT30;60269;52.502;16.732;2023-11-19T10:54:09;0.46;99.99
72320;SHT30;60269;52.502;16.732;2023-11-19T10:57:45;0.50;99.99
72320;SHT30;60269;52.502;16.732;2023-11-19T11:01:20;0.59;99.99
72320;SHT30;60269;52.502;16.732;2023-11-19T11:04:55;0.59;99.99
72320;SHT30;60269;52.502;16.732;2023-11-19T11:08:29;0.65;99.99
72320;SHT30;60269;52.502;16.732;2023-11-19T11:12:03;0.66;99.99
72320;SHT30;60269;52.502;16.732;2023-11-19T11:15:37;0.69;99.99
72320;SHT30;60269;52.502;16.732;2023-11-19T11:19:10;0.70;99.99
72320;SHT30;60269;52.502;16.732;2023-11-19T11:23:15;0.75;99.99
72320;SHT30;60269;52.502;16.732;2023-11-19T11:30:53;0.72;99.99
72320;SHT30;60269;52.502;16.732;2023-11-19T11:38:08;0.69;99.99
72320;SHT30;60269;52.502;16.732;2023-11-19T11:41:40;0.69;99.99
72320;SHT30;60269;52.502;16.732;2023-11-19T11:45:14;0.72;99.99
72320;SHT30;60269;52.502;16.732;2023-11-19T11:48:48;0.72;99.99
72320;SHT30;60269;52.502;16.732;2023-11-19T11:52:21;0.73;99.99
72320;SHT30;60269;52.502;16.732;2023-11-19T11:55:54;0.80;99.99
72320;SHT30;60269;52.502;16.732;2023-11-19T12:03:14;0.80;99.99
72320;SHT30;60269;52.502;16.732;2023-11-19T12:10:57;0.83;99.99
72320;SHT30;60269;52.502;16.732;2023-11-19T12:15:00;0.81;99.99
72320;SHT30;60269;52.502;16.732;2023-11-19T12:18:32;0.87;99.99
72320;SHT30;60269;52.502;16.732;2023-11-19T12:22:10;0.90;99.99
72320;SHT30;60269;52.502;16.732;2023-11-19T12:25:42;0.93;99.99
72320;SHT30;60269;52.502;16.732;2023-11-19T12:29:17;0.94;99.99
72320;SHT30;60269;52.502;16.732;2023-11-19T12:32:49;0.90;99.99
72320;SHT30;60269;52.502;16.732;2023-11-19T12:36:22;0.88;99.99
72320;SHT30;60269;52.502;16.732;2023-11-19T12:39:54;0.88;99.99
72320;SHT30;60269;52.502;16.732;2023-11-19T12:43:26;0.97;99.99
72320;SHT30;60269;52.502;16.732;2023-11-19T12:47:05;1.01;99.99
72320;SHT30;60269;52.502;16.732;2023-11-19T12:50:55;1.07;99.99
72320;SHT30;60269;52.502;16.732;2023-11-19T12:54:35;1.17;99.99
72320;SHT30;60269;52.502;16.732;2023-11-19T12:58:07;1.15;99.99
72320;SHT30;60269;52.502;16.732;2023-11-19T13:01:39;1.14;99.99
72320;SHT30;60269;52.502;16.732;2023-11-19T13:05:30;1.14;99.99
72320;SHT30;60269;52.502;16.732;2023-11-19T13:09:04;1.15;99.99
72320;SHT30;60269;52.502;16.732;2023-11-19T13:12:36;1.28;99.99
72320;SHT30;60269;52.502;16.732;2023-11-19T13:16:08;1.31;99.99
72320;SHT30;60269;52.502;16.732;2023-11-19T13:19:41;1.35;99.99
72320;SHT30;60269;52.502;16.732;2023-11-19T13:23:13;1.42;99.99
72320;SHT30;60269;52.502;16.732;2023-11-19T13:26:48;1.42;99.99
72320;SHT30;60269;52.502;16.732;2023-11-19T13:30:23;1.39;99.99
72320;SHT30;60269;52.502;16.732;2023-11-19T13:33:58;1.42;99.99
72320;SHT30;60269;52.502;16.732;2023-11-19T13:37:31;1.42;99.99
72320;SHT30;60269;52.502;16.732;2023-11-19T13:41:03;1.42;99.99
72320;SHT30;60269;52.502;16.732;2023-11-19T13:44:36;1.42;99.99
72320;SHT30;60269;52.502;16.732;2023-11-19T13:48:08;1.39;99.99
72320;SHT30;60269;52.502;16.732;2023-11-19T13:51:41;1.42;99.99
72320;SHT30;60269;52.502;16.732;2023-11-19T13:55:13;1.41;99.99
72320;SHT30;60269;52.502;16.732;2023-11-19T13:58:46;1.42;99.99
72320;SHT30;60269;52.502;16.732;2023-11-19T14:02:17;1.46;99.99
72320;SHT30;60269;52.502;16.732;2023-11-19T14:05:50;1.48;99.99
72320;SHT30;60269;52.502;16.732;2023-11-19T14:09:24;1.49;99.99
72320;SHT30;60269;52.502;16.732;2023-11-19T14:12:55;1.44;99.99
72320;SHT30;60269;52.502;16.732;2023-11-19T14:16:28;1.46;99.99
72320;SHT30;60269;52.502;16.732;2023-11-19T14:20:00;1.52;99.99
72320;SHT30;60269;52.502;16.732;2023-11-19T14:23:32;1.55;99.99
72320;SHT30;60269;52.502;16.732;2023-11-19T14:27:04;1.56;99.99
72320;SHT30;60269;52.502;16.732;2023-11-19T14:30:38;1.62;99.99
72320;SHT30;60269;52.502;16.732;2023-11-19T14:34:11;1.63;99.99
72320;SHT30;60269;52.502;16.732;2023-11-19T14:37:43;1.67;99.99
72320;SHT30;60269;52.502;16.732;2023-11-19T14:41:16;1.76;99.99
72320;SHT30;60269;52.502;16.732;2023-11-19T14:44:48;1.77;99.99
72320;SHT30;60269;52.502;16.732;2023-11-19T14:48:20;1.82;99.99
72320;SHT30;60269;52.502;16.732;2023-11-19T14:51:52;1.83;99.99
72320;SHT30;60269;52.502;16.732;2023-11-19T14:55:24;1.86;99.99
72320;SHT30;60269;52.502;16.732;2023-11-19T14:58:56;1.89;99.99
72320;SHT30;60269;52.502;16.732;2023-11-19T15:02:28;1.97;99.99
72320;SHT30;60269;52.502;16.732;2023-11-19T15:06:01;2.03;99.99
72320;SHT30;60269;52.502;16.732;2023-11-19T15:09:33;2.06;99.99
72320;SHT30;60269;52.502;16.732;2023-11-19T15:13:05;2.17;99.99
72320;SHT30;60269;52.502;16.732;2023-11-19T15:16:37;2.24;99.99
72320;SHT30;60269;52.502;16.732;2023-11-19T15:20:10;2.30;99.99
72320;SHT30;60269;52.502;16.732;2023-11-19T15:23:42;2.33;99.99
72320;SHT30;60269;52.502;16.732;2023-11-19T15:27:14;2.42;99.99
72320;SHT30;60269;52.502;16.732;2023-11-19T15:30:47;2.45;99.99
72320;SHT30;60269;52.502;16.732;2023-11-19T15:34:19;2.48;99.99
72320;SHT30;60269;52.502;16.732;2023-11-19T15:37:51;2.56;99.99
72320;SHT30;60269;52.502;16.732;2023-11-19T15:41:24;2.63;99.99
72320;SHT30;60269;52.502;16.732;2023-11-19T15:44:56;2.63;99.99
72320;SHT30;60269;52.502;16.732;2023-11-19T15:48:28;2.66;99.99
72320;SHT30;60269;52.502;16.732;2023-11-19T15:52:00;2.68;99.99
72320;SHT30;60269;52.502;16.732;2023-11-19T15:55:32;2.73;99.99
72320;SHT30;60269;52.502;16.732;2023-11-19T15:59:03;2.69;99.99
72320;SHT30;60269;52.502;16.732;2023-11-19T16:02:40;2.78;99.99
72320;SHT30;60269;52.502;16.732;2023-11-19T16:06:12;2.88;99.99
72320;SHT30;60269;52.502;16.732;2023-11-19T16:09:44;2.92;99.99
72320;SHT30;60269;52.502;16.732;2023-11-19T16:13:16;2.95;99.99
72320;SHT30;60269;52.502;16.732;2023-11-19T16:16:48;3.12;99.99
72320;SHT30;60269;52.502;16.732;2023-11-19T16:20:20;3.38;99.99
72320;SHT30;60269;52.502;16.732;2023-11-19T16:23:52;3.54;99.99
72320;SHT30;60269;52.502;16.732;2023-11-19T16:27:24;3.68;99.99
72320;SHT30;60269;52.502;16.732;2023-11-19T16:31:00;3.96;99.99
72320;SHT30;60269;52.502;16.732;2023-11-19T16:34:32;4.17;99.99
72320;SHT30;60269;52.502;16.732;2023-11-19T16:38:09;4.36;99.99
72320;SHT30;60269;52.502;16.732;2023-11-19T16:41:41;4.48;99.99
72320;SHT30;60269;52.502;16.732;2023-11-19T16:45:15;4.64;99.99
72320;SHT30;60269;52.502;16.732;2023-11-19T16:48:47;4.78;99.99
72320;SHT30;60269;52.502;16.732;2023-11-19T16:52:22;4.95;99.99
72320;SHT30;60269;52.502;16.732;2023-11-19T16:55:54;5.06;99.99
72320;SHT30;60269;52.502;16.732;2023-11-19T16:59:26;5.26;99.99
72320;SHT30;60269;52.502;16.732;2023-11-19T17:02:58;5.43;99.99
72320;SHT30;60269;52.502;16.732;2023-11-19T17:06:37;5.63;99.99
72320;SHT30;60269;52.502;16.732;2023-11-19T17:10:10;5.81;99.99
72320;SHT30;60269;52.502;16.732;2023-11-19T17:13:42;5.94;99.99
72320;SHT30;60269;52.502;16.732;2023-11-19T17:17:14;6.09;99.99
72320;SHT30;60269;52.502;16.732;2023-11-19T17:20:46;6.12;99.99
72320;SHT30;60269;52.502;16.732;2023-11-19T17:24:18;6.28;99.99
72320;SHT30;60269;52.502;16.732;2023-11-19T17:27:51;6.40;99.99
72320;SHT30;60269;52.502;16.732;2023-11-19T17:31:23;6.53;99.99
72320;SHT30;60269;52.502;16.732;2023-11-19T17:34:55;6.70;99.99
72320;SHT30;60269;52.502;16.732;2023-11-19T17:38:27;6.88;99.99
72320;SHT30;60269;52.502;16.732;2023-11-19T17:41:59;7.11;99.99
72320;SHT30;60269;52.502;16.732;2023-11-19T17:45:31;7.26;99.99
72320;SHT30;60269;52.502;16.732;2023-11-19T17:49:03;7.32;99.99
72320;SHT30;60269;52.502;16.732;2023-11-19T17:52:35;7.41;99.99
72320;SHT30;60269;52.502;16.732;2023-11-19T17:56:08;7.50;99.99
72320;SHT30;60269;52.502;16.732;2023-11-19T17:59:40;7.67;99.99
72320;SHT30;60269;52.502;16.732;2023-11-19T18:03:13;7.73;99.99
72320;SHT30;60269;52.502;16.732;2023-11-19T18:06:46;7.74;99.99
72320;SHT30;60269;52.502;16.732;2023-11-19T18:10:18;7.79;99.99
72320;SHT30;60269;52.502;16.732;2023-11-19T18:13:50;7.81;99.99
72320;SHT30;60269;52.502;16.732;2023-11-19T18:17:22;7.93;99.99
72320;SHT30;60269;52.502;16.732;2023-11-19T18:20:54;7.97;99.99
72320;SHT30;60269;52.502;16.732;2023-11-19T18:24:26;8.04;99.99
72320;SHT30;60269;52.502;16.732;2023-11-19T18:27:58;8.04;99.99
72320;SHT30;60269;52.502;16.732;2023-11-19T18:31:30;7.94;99.99
72320;SHT30;60269;52.502;16.732;2023-11-19T18:35:02;7.98;99.99
72320;SHT30;60269;52.502;16.732;2023-11-19T18:38:37;7.97;99.99
72320;SHT30;60269;52.502;16.732;2023-11-19T18:42:14;7.97;99.99
72320;SHT30;60269;52.502;16.732;2023-11-19T18:45:46;7.97;99.99
72320;SHT30;60269;52.502;16.732;2023-11-19T18:49:18;7.98;99.99
72320;SHT30;60269;52.502;16.732;2023-11-19T18:52:50;7.97;99.99
72320;SHT30;60269;52.502;16.732;2023-11-19T18:56:23;7.97;99.99
72320;SHT30;60269;52.502;16.732;2023-11-19T18:59:55;7.95;99.99
72320;SHT30;60269;52.502;16.732;2023-11-19T19:03:27;7.95;99.99
72320;SHT30;60269;52.502;16.732;2023-11-19T19:07:03;7.86;99.99
72320;SHT30;60269;52.502;16.732;2023-11-19T19:10:37;7.74;99.99
72320;SHT30;60269;52.502;16.732;2023-11-19T19:14:10;7.77;99.99
72320;SHT30;60269;52.502;16.732;2023-11-19T19:17:43;7.76;99.99
72320;SHT30;60269;52.502;16.732;2023-11-19T19:21:16;7.81;99.99
72320;SHT30;60269;52.502;16.732;2023-11-19T19:24:48;7.86;99.99
72320;SHT30;60269;52.502;16.732;2023-11-19T19:28:21;7.91;99.99
72320;SHT30;60269;52.502;16.732;2023-11-19T19:31:55;7.95;99.99
72320;SHT30;60269;52.502;16.732;2023-11-19T19:35:28;8.00;99.99
72320;SHT30;60269;52.502;16.732;2023-11-19T19:39:01;8.08;99.99
72320;SHT30;60269;52.502;16.732;2023-11-19T19:42:35;8.10;99.99
72320;SHT30;60269;52.502;16.732;2023-11-19T19:46:07;8.14;99.99
72320;SHT30;60269;52.502;16.732;2023-11-19T19:49:42;8.15;99.99
72320;SHT30;60269;52.502;16.732;2023-11-19T19:53:14;8.21;99.99
72320;SHT30;60269;52.502;16.732;2023-11-19T19:56:46;8.22;99.99
72320;SHT30;60269;52.502;16.732;2023-11-19T20:00:18;8.20;99.99
72320;SHT30;60269;52.502;16.732;2023-11-19T20:03:54;8.20;99.99
72320;SHT30;60269;52.502;16.732;2023-11-19T20:07:26;8.22;99.99
72320;SHT30;60269;52.502;16.732;2023-11-19T20:10:58;8.22;99.99
72320;SHT30;60269;52.502;16.732;2023-11-19T20:14:30;8.17;99.99
72320;SHT30;60269;52.502;16.732;2023-11-19T20:18:02;8.15;99.99
72320;SHT30;60269;52.502;16.732;2023-11-19T20:21:34;8.15;99.99
72320;SHT30;60269;52.502;16.732;2023-11-19T20:25:08;8.11;99.99
72320;SHT30;60269;52.502;16.732;2023-11-19T20:28:40;8.08;99.99
72320;SHT30;60269;52.502;16.732;2023-11-19T20:32:12;8.08;99.99
72320;SHT30;60269;52.502;16.732;2023-11-19T20:35:44;8.08;99.99
72320;SHT30;60269;52.502;16.732;2023-11-19T20:39:17;8.10;99.99
72320;SHT30;60269;52.502;16.732;2023-11-19T20:42:50;8.15;99.99
72320;SHT30;60269;52.502;16.732;2023-11-19T20:46:23;8.12;99.99
72320;SHT30;60269;52.502;16.732;2023-11-19T20:49:55;8.14;99.99
72320;SHT30;60269;52.502;16.732;2023-11-19T20:53:27;8.14;99.99
72320;SHT30;60269;52.502;16.732;2023-11-19T20:57:00;8.11;99.99
72320;SHT30;60269;52.502;16.732;2023-11-19T21:00:31;8.15;99.99
72320;SHT30;60269;52.502;16.732;2023-11-19T21:04:04;8.07;99.99
72320;SHT30;60269;52.502;16.732;2023-11-19T21:07:36;8.04;99.99
72320;SHT30;60269;52.502;16.732;2023-11-19T21:11:09;8.05;99.99
72320;SHT30;60269;52.502;16.732;2023-11-19T21:14:41;8.00;99.99
72320;SHT30;60269;52.502;16.732;2023-11-19T21:18:14;7.94;99.99
72320;SHT30;60269;52.502;16.732;2023-11-19T21:21:46;7.93;99.99
72320;SHT30;60269;52.502;16.732;2023-11-19T21:25:18;7.90;99.99
72320;SHT30;60269;52.502;16.732;2023-11-19T21:28:50;7.93;99.99
72320;SHT30;60269;52.502;16.732;2023-11-19T21:32:22;7.94;99.99
72320;SHT30;60269;52.502;16.732;2023-11-19T21:35:55;7.94;99.99
72320;SHT30;60269;52.502;16.732;2023-11-19T21:39:27;8.01;99.99
72320;SHT30;60269;52.502;16.732;2023-11-19T21:42:59;7.95;99.99
72320;SHT30;60269;52.502;16.732;2023-11-19T21:46:31;7.95;99.99
72320;SHT30;60269;52.502;16.732;2023-11-19T21:50:05;8.00;99.99
72320;SHT30;60269;52.502;16.732;2023-11-19T21:53:38;8.01;99.99
72320;SHT30;60269;52.502;16.732;2023-11-19T21:57:12;8.04;99.99
72320;SHT30;60269;52.502;16.732;2023-11-19T22:00:44;8.10;99.99
72320;SHT30;60269;52.502;16.732;2023-11-19T22:04:16;8.07;99.99
72320;SHT30;60269;52.502;16.732;2023-11-19T22:07:48;8.11;99.99
72320;SHT30;60269;52.502;16.732;2023-11-19T22:11:21;8.11;99.99
72320;SHT30;60269;52.502;16.732;2023-11-19T22:14:56;8.14;99.99
72320;SHT30;60269;52.502;16.732;2023-11-19T22:18:27;8.20;99.99
72320;SHT30;60269;52.502;16.732;2023-11-19T22:21:59;8.25;99.99
72320;SHT30;60269;52.502;16.732;2023-11-19T22:25:31;8.24;99.99
72320;SHT30;60269;52.502;16.732;2023-11-19T22:29:04;8.22;99.99
72320;SHT30;60269;52.502;16.732;2023-11-19T22:32:36;8.25;99.99
72320;SHT30;60269;52.502;16.732;2023-11-19T22:36:08;8.27;99.99
72320;SHT30;60269;52.502;16.732;2023-11-19T22:39:42;8.27;99.99